Time;durP1;ratioP1;P1;durP2;ratioP2;P2;SDS_P1;SDS_P2;PMS_P1;PMS_P2;Temp;Humidity;BMP_temperature;BMP_pressure;BME280_temperature;BME280_humidity;BME280_pressure;Samples;Min_cycle;Max_cycle;Signal;HPM_P1;HPM_P2
2023/12/16 00:01:13;;;;;;;2.97;0.63;;;;;;;0.92;100.00;102556.50;5030297;28;20041;-67
2023/12/16 00:03:39;;;;;;;3.47;0.95;;;;;;;0.86;100.00;102553.22;5020874;28;20034;-66
2023/12/16 00:06:04;;;;;;;6.10;0.82;;;;;;;0.81;100.00;102548.19;5024956;28;20121;-67
2023/12/16 00:08:30;;;;;;;2.30;0.52;;;;;;;0.82;100.00;102546.47;5007297;28;20543;-66
2023/12/16 00:10:56;;;;;;;1.15;0.50;;;;;;;0.77;100.00;102545.72;5030736;28;20137;-66
2023/12/16 00:13:21;;;;;;;4.28;0.90;;;;;;;0.83;100.00;102540.47;5017186;28;20038;-67
2023/12/16 00:15:47;;;;;;;5.28;1.10;;;;;;;0.86;100.00;102543.81;5026087;28;20049;-66
2023/12/16 00:18:12;;;;;;;2.97;0.93;;;;;;;0.82;100.00;102542.19;5017390;28;20022;-66
2023/12/16 00:20:38;;;;;;;1.65;0.45;;;;;;;0.74;100.00;102538.06;5024276;28;20056;-67
2023/12/16 00:23:03;;;;;;;4.55;1.15;;;;;;;0.64;100.00;102539.97;5028214;28;20030;-67
2023/12/16 00:25:28;;;;;;;1.67;0.55;;;;;;;0.61;100.00;102538.31;5034635;28;20087;-66
2023/12/16 00:27:54;;;;;;;2.50;0.70;;;;;;;0.54;100.00;102530.75;5035073;28;20036;-66
2023/12/16 00:30:19;;;;;;;4.22;0.85;;;;;;;0.52;100.00;102542.78;5033828;28;20120;-66
2023/12/16 00:32:45;;;;;;;2.78;0.80;;;;;;;0.50;100.00;102547.09;5030245;28;20036;-67
2023/12/16 00:35:10;;;;;;;1.92;0.70;;;;;;;0.42;100.00;102551.53;5029174;28;20056;-66
2023/12/16 00:37:36;;;;;;;5.85;1.27;;;;;;;0.45;100.00;102547.22;5033202;28;20032;-66
2023/12/16 00:40:03;;;;;;;2.85;0.68;;;;;;;0.50;100.00;102557.34;5031960;28;20098;-66
2023/12/16 00:42:29;;;;;;;4.88;0.82;;;;;;;0.47;100.00;102560.84;5031563;28;20029;-66
2023/12/16 00:44:56;;;;;;;3.22;0.85;;;;;;;0.45;100.00;102572.84;5014344;28;20036;-66
2023/12/16 00:47:21;;;;;;;3.30;0.90;;;;;;;0.39;100.00;102587.50;5032071;28;20207;-66
2023/12/16 00:49:47;;;;;;;3.78;1.40;;;;;;;0.50;100.00;102580.44;5033594;28;20112;-67
2023/12/16 00:52:12;;;;;;;4.50;1.40;;;;;;;0.60;100.00;102580.22;5026222;28;20416;-66
2023/12/16 00:54:38;;;;;;;5.63;1.05;;;;;;;0.63;100.00;102584.47;5034312;28;20029;-66
2023/12/16 00:57:03;;;;;;;6.00;1.38;;;;;;;0.62;100.00;102580.22;5031377;28;20049;-67
2023/12/16 00:59:29;;;;;;;4.63;1.63;;;;;;;0.76;100.00;102567.97;5021728;28;20049;-66
2023/12/16 01:01:55;;;;;;;3.47;1.65;;;;;;;0.76;100.00;102582.50;5024830;28;20033;-66
2023/12/16 01:04:20;;;;;;;6.82;1.58;;;;;;;0.79;100.00;102583.28;5029142;28;20030;-67
2023/12/16 01:06:46;;;;;;;1.63;0.70;;;;;;;0.71;100.00;102585.16;5028391;28;20504;-66
2023/12/16 01:09:11;;;;;;;5.03;1.67;;;;;;;0.61;100.00;102581.94;5019193;28;20381;-66
2023/12/16 01:11:37;;;;;;;5.60;2.15;;;;;;;0.52;100.00;102586.38;5030278;28;20135;-67
2023/12/16 01:14:02;;;;;;;4.15;1.50;;;;;;;0.42;100.00;102577.19;5033078;28;20476;-67
2023/12/16 01:16:28;;;;;;;4.47;1.38;;;;;;;0.38;100.00;102580.69;5032263;28;20040;-67
2023/12/16 01:18:54;;;;;;;3.83;1.63;;;;;;;0.27;100.00;102586.84;5039897;28;20033;-66
2023/12/16 01:21:20;;;;;;;7.57;1.70;;;;;;;0.22;100.00;102586.06;5031989;28;20029;-67
2023/12/16 01:23:46;;;;;;;5.10;1.65;;;;;;;0.23;100.00;102587.78;5034351;28;20048;-66
2023/12/16 01:26:11;;;;;;;5.70;1.60;;;;;;;0.18;100.00;102578.47;5046372;28;20139;-66
2023/12/16 01:28:38;;;;;;;6.40;1.60;;;;;;;0.16;100.00;102565.69;5036457;28;20071;-66
2023/12/16 01:31:03;;;;;;;3.58;1.10;;;;;;;0.23;100.00;102572.38;5030675;28;20496;-66
2023/12/16 01:33:29;;;;;;;4.20;1.10;;;;;;;0.23;100.00;102585.22;5033714;28;20049;-66
2023/12/16 01:35:54;;;;;;;3.55;0.75;;;;;;;0.20;100.00;102580.13;5032308;28;20037;-66
2023/12/16 01:38:20;;;;;;;6.22;1.20;;;;;;;0.15;100.00;102591.34;5024601;28;20515;-67
2023/12/16 01:40:45;;;;;;;4.35;1.25;;;;;;;0.10;100.00;102593.97;5036726;28;20033;-66
2023/12/16 01:43:11;;;;;;;7.43;1.30;;;;;;;0.19;100.00;102604.06;5034234;28;20569;-66
2023/12/16 01:45:37;;;;;;;6.55;1.52;;;;;;;0.19;100.00;102596.38;5022613;28;20033;-66
2023/12/16 01:48:03;;;;;;;4.18;0.98;;;;;;;0.11;100.00;102603.34;5031374;28;20038;-66
2023/12/16 01:50:29;;;;;;;4.97;1.30;;;;;;;0.09;100.00;102597.41;5031160;28;20044;-67
2023/12/16 01:52:56;;;;;;;5.63;0.93;;;;;;;0.03;100.00;102605.19;5034885;28;20520;-66
2023/12/16 01:55:22;;;;;;;3.72;0.98;;;;;;;0.03;100.00;102610.31;5032023;28;20037;-67
2023/12/16 01:57:48;;;;;;;4.65;1.60;;;;;;;0.06;100.00;102606.88;5015834;28;20136;-67
2023/12/16 02:00:14;;;;;;;4.10;0.80;;;;;;;0.01;100.00;102614.63;5033855;28;20037;-66
2023/12/16 02:02:40;;;;;;;3.67;0.95;;;;;;;-0.01;100.00;102624.09;5036063;28;20074;-67
2023/12/16 02:05:09;;;;;;;2.17;0.47;;;;;;;0.22;100.00;102619.41;5032847;28;20072;-66
2023/12/16 02:07:34;;;;;;;3.65;1.00;;;;;;;0.35;100.00;102611.50;5032893;28;20025;-67
2023/12/16 02:10:01;;;;;;;3.00;1.00;;;;;;;0.27;100.00;102621.91;5031938;28;20033;-67
2023/12/16 02:12:35;;;;;;;2.45;0.47;;;;;;;0.22;100.00;102621.97;5033522;28;20392;-66
2023/12/16 02:15:05;;;;;;;1.85;0.73;;;;;;;0.18;100.00;102615.19;5031866;28;20034;-66
2023/12/16 02:17:30;;;;;;;5.75;1.10;;;;;;;0.33;100.00;102606.41;5030461;28;20029;-66
2023/12/16 02:19:56;;;;;;;5.30;1.13;;;;;;;0.36;100.00;102613.19;5033636;28;20080;-66
2023/12/16 02:22:22;;;;;;;2.50;0.75;;;;;;;0.23;100.00;102623.66;5032474;28;20183;-66
2023/12/16 02:24:49;;;;;;;1.67;0.93;;;;;;;0.13;100.00;102627.25;5030273;28;20025;-67
2023/12/16 02:27:14;;;;;;;3.30;0.70;;;;;;;0.09;100.00;102633.28;5032111;28;20227;-66
2023/12/16 02:29:40;;;;;;;3.28;0.80;;;;;;;0.09;100.00;102623.03;5032072;28;20457;-67
2023/12/16 02:32:06;;;;;;;2.42;0.70;;;;;;;0.05;100.00;102628.25;5035146;28;20030;-67
2023/12/16 02:34:32;;;;;;;2.00;0.50;;;;;;;0.01;100.00;102632.56;5030955;28;20052;-67
2023/12/16 02:36:57;;;;;;;2.42;0.60;;;;;;;0.01;100.00;102624.88;5036459;28;20029;-68
2023/12/16 02:39:23;;;;;;;4.72;0.57;;;;;;;0.03;100.00;102623.13;5032747;28;20048;-67
2023/12/16 02:41:48;;;;;;;1.83;0.57;;;;;;;0.08;100.00;102643.56;5035126;28;20063;-67
2023/12/16 02:44:14;;;;;;;1.42;0.52;;;;;;;0.05;100.00;102634.22;5035401;28;20025;-67
2023/12/16 02:46:39;;;;;;;2.92;0.85;;;;;;;0.02;100.00;102636.81;5031468;28;20385;-67
2023/12/16 02:49:04;;;;;;;4.13;1.02;;;;;;;-0.04;100.00;102635.22;5035575;28;20036;-67
2023/12/16 02:51:30;;;;;;;2.30;0.80;;;;;;;-0.07;100.00;102637.00;5035521;28;20037;-67
2023/12/16 02:53:56;;;;;;;4.25;0.70;;;;;;;0.14;100.00;102631.50;4997079;28;20040;-67
2023/12/16 02:56:21;;;;;;;1.25;0.57;;;;;;;0.19;100.00;102627.16;5037137;28;20142;-67
2023/12/16 02:58:48;;;;;;;2.38;0.40;;;;;;;0.09;100.00;102635.84;5019105;28;20132;-67
2023/12/16 03:01:14;;;;;;;2.20;0.90;;;;;;;-0.02;100.00;102636.06;5035897;28;20033;-67
2023/12/16 03:03:39;;;;;;;5.65;0.80;;;;;;;-0.08;100.00;102630.16;5038227;28;20037;-67
2023/12/16 03:06:06;;;;;;;2.15;0.50;;;;;;;-0.13;100.00;102630.25;5036559;28;20025;-67
2023/12/16 03:08:32;;;;;;;4.22;0.73;;;;;;;-0.04;100.00;102630.09;5033704;28;20029;-67
2023/12/16 03:10:57;;;;;;;3.65;0.73;;;;;;;0.25;100.00;102634.75;5037695;28;20040;-67
2023/12/16 03:13:23;;;;;;;4.22;0.60;;;;;;;0.61;100.00;102640.09;5037192;28;20037;-67
2023/12/16 03:15:48;;;;;;;1.42;0.38;;;;;;;0.77;100.00;102633.81;5035706;28;20036;-67
2023/12/16 03:18:14;;;;;;;2.10;0.50;;;;;;;0.75;100.00;102634.69;5035186;28;20065;-66
2023/12/16 03:20:39;;;;;;;1.30;0.28;;;;;;;1.07;100.00;102634.06;5032441;28;20040;-66
2023/12/16 03:23:04;;;;;;;3.17;0.77;;;;;;;1.16;100.00;102636.44;5038251;28;20119;-66
2023/12/16 03:25:30;;;;;;;5.80;0.52;;;;;;;1.11;100.00;102645.97;5030462;28;20041;-67
2023/12/16 03:27:55;;;;;;;2.88;0.60;;;;;;;0.97;100.00;102652.22;5040035;28;20389;-66
2023/12/16 03:30:21;;;;;;;1.75;0.20;;;;;;;1.02;100.00;102644.41;5037592;28;20559;-67
2023/12/16 03:32:46;;;;;;;2.17;0.47;;;;;;;0.97;100.00;102644.50;5037991;28;20536;-67
2023/12/16 03:35:12;;;;;;;4.50;0.50;;;;;;;1.13;100.00;102639.06;5034950;28;20159;-66
2023/12/16 03:37:37;;;;;;;2.90;0.40;;;;;;;1.04;100.00;102655.50;5041926;28;20041;-66
2023/12/16 03:40:03;;;;;;;1.50;0.40;;;;;;;0.86;100.00;102651.59;5036701;28;20480;-66
2023/12/16 03:42:29;;;;;;;6.38;0.68;;;;;;;0.77;100.00;102651.75;5034286;28;20284;-66
2023/12/16 03:44:54;;;;;;;1.60;0.40;;;;;;;0.64;100.00;102652.84;5035810;28;20495;-66
2023/12/16 03:47:20;;;;;;;2.17;0.50;;;;;;;0.62;100.00;102655.44;5028246;28;20041;-66
2023/12/16 03:49:45;;;;;;;2.45;0.40;;;;;;;0.64;100.00;102660.56;5036839;28;20396;-66
2023/12/16 03:52:11;;;;;;;1.98;0.55;;;;;;;0.59;100.00;102652.94;5035680;28;20128;-66
2023/12/16 03:54:37;;;;;;;1.42;0.57;;;;;;;0.52;100.00;102664.19;5034579;28;20045;-66
2023/12/16 03:57:03;;;;;;;2.65;0.40;;;;;;;0.52;100.00;102664.19;5032831;28;20036;-67
2023/12/16 03:59:29;;;;;;;3.40;0.22;;;;;;;0.44;100.00;102654.94;5032664;28;20192;-66
2023/12/16 04:01:54;;;;;;;2.42;0.30;;;;;;;0.31;100.00;102665.41;5020072;28;20119;-68
2023/12/16 04:04:19;;;;;;;1.80;0.30;;;;;;;0.25;100.00;102657.81;5013419;28;20122;-66
2023/12/16 04:06:45;;;;;;;0.47;0.20;;;;;;;0.35;100.00;102662.78;5019555;28;20477;-66
2023/12/16 04:09:11;;;;;;;1.95;0.40;;;;;;;0.26;100.00;102668.91;5026831;28;20581;-67
2023/12/16 04:11:45;;;;;;;6.10;0.40;;;;;;;0.07;100.00;102677.75;5032389;28;20974;-66
2023/12/16 04:14:11;;;;;;;2.78;0.50;;;;;;;-0.01;100.00;102681.31;5028167;28;20029;-67
2023/12/16 04:16:37;;;;;;;1.52;0.20;;;;;;;-0.05;100.00;102683.94;5030197;28;20025;-67
2023/12/16 04:19:02;;;;;;;1.00;0.22;;;;;;;-0.07;100.00;102694.22;5030096;28;20088;-67
2023/12/16 04:21:28;;;;;;;3.35;0.30;;;;;;;-0.14;100.00;102690.03;5029568;28;20401;-67
2023/12/16 04:23:53;;;;;;;2.17;0.35;;;;;;;-0.16;100.00;102686.66;5030956;28;20033;-67
2023/12/16 04:26:19;;;;;;;1.50;0.22;;;;;;;-0.22;100.00;102698.69;5034288;28;20495;-66
2023/12/16 04:28:44;;;;;;;0.98;0.30;;;;;;;-0.28;100.00;102691.94;5030294;28;20038;-66
2023/12/16 04:31:17;;;;;;;1.58;0.50;;;;;;;-0.28;100.00;102696.22;5034955;28;20086;-66
2023/12/16 04:33:46;;;;;;;5.57;0.60;;;;;;;-0.23;100.00;102717.50;5031257;28;20049;-66
2023/12/16 04:36:15;;;;;;;2.00;0.50;;;;;;;-0.17;100.00;102720.00;5033897;28;20032;-66
2023/12/16 04:38:41;;;;;;;9.27;0.65;;;;;;;-0.15;100.00;102713.13;5028963;28;20034;-66
2023/12/16 04:41:06;;;;;;;3.83;0.60;;;;;;;-0.20;100.00;102715.75;5035415;28;20048;-66
2023/12/16 04:43:32;;;;;;;2.40;0.50;;;;;;;-0.19;100.00;102706.34;5032288;28;20489;-66
2023/12/16 04:46:00;;;;;;;3.30;0.40;;;;;;;-0.21;100.00;102715.78;5031129;28;20079;-66
2023/12/16 04:48:26;;;;;;;2.97;0.93;;;;;;;-0.23;100.00;102725.19;5029039;28;20029;-66
2023/12/16 04:50:51;;;;;;;1.75;0.55;;;;;;;-0.21;100.00;102718.34;5028483;28;20033;-66
2023/12/16 04:53:17;;;;;;;3.97;0.80;;;;;;;-0.13;100.00;102722.50;5030927;28;20400;-66
2023/12/16 04:55:42;;;;;;;3.38;0.60;;;;;;;0.05;100.00;102720.50;5029251;28;20478;-66
2023/12/16 04:58:07;;;;;;;1.48;0.47;;;;;;;0.03;100.00;102728.22;5029527;28;20122;-67
2023/12/16 05:00:33;;;;;;;2.17;0.40;;;;;;;-0.05;100.00;102725.78;5030291;28;20458;-66
2023/12/16 05:02:59;;;;;;;1.77;0.45;;;;;;;-0.09;100.00;102729.25;5035692;28;20033;-67
2023/12/16 05:05:24;;;;;;;2.83;0.50;;;;;;;-0.08;100.00;102727.56;5032556;28;20057;-66
2023/12/16 05:07:50;;;;;;;4.05;0.50;;;;;;;-0.05;100.00;102719.81;5034013;28;20042;-66
2023/12/16 05:10:15;;;;;;;5.70;0.35;;;;;;;-0.12;100.00;102731.88;5033776;28;20059;-66
2023/12/16 05:12:40;;;;;;;3.33;0.47;;;;;;;-0.12;100.00;102739.56;5036408;28;20037;-66
2023/12/16 05:15:07;;;;;;;4.47;0.52;;;;;;;-0.18;100.00;102733.66;5034592;28;20056;-67
2023/12/16 05:17:33;;;;;;;4.68;0.47;;;;;;;-0.20;100.00;102737.97;5030950;28;20033;-66
2023/12/16 05:19:58;;;;;;;6.70;0.60;;;;;;;-0.24;100.00;102738.88;5029878;28;20030;-67
2023/12/16 05:22:24;;;;;;;3.28;0.57;;;;;;;-0.28;100.00;102739.78;5034073;28;20095;-66
2023/12/16 05:24:50;;;;;;;1.10;0.40;;;;;;;-0.31;100.00;102745.78;5039429;28;20421;-67
2023/12/16 05:27:15;;;;;;;3.05;0.93;;;;;;;-0.31;100.00;102738.09;5037262;28;20029;-66
2023/12/16 05:29:41;;;;;;;2.90;0.40;;;;;;;-0.38;100.00;102742.44;5033349;28;20152;-66
2023/12/16 05:32:06;;;;;;;4.07;0.98;;;;;;;-0.42;100.00;102738.22;5030896;28;20195;-66
2023/12/16 05:34:32;;;;;;;8.80;2.85;;;;;;;-0.43;100.00;102751.91;5015197;28;20069;-66
2023/12/16 05:36:58;;;;;;;5.68;1.00;;;;;;;-0.48;100.00;102734.91;5024265;28;20037;-66
2023/12/16 05:39:23;;;;;;;4.13;1.20;;;;;;;-0.47;100.00;102741.72;5034144;28;20103;-66
2023/12/16 05:41:49;;;;;;;6.68;2.28;;;;;;;-0.42;100.00;102740.78;5033922;28;20546;-66
2023/12/16 05:44:15;;;;;;;5.43;1.77;;;;;;;-0.43;100.00;102746.78;5028548;28;20485;-66
2023/12/16 05:46:41;;;;;;;3.70;1.20;;;;;;;-0.49;100.00;102749.44;5030660;28;20392;-66
2023/12/16 05:49:06;;;;;;;3.95;1.58;;;;;;;-0.51;100.00;102751.19;5032678;28;20033;-66
2023/12/16 05:51:39;;;;;;;17.83;4.85;;;;;;;-0.51;100.00;102756.28;5033815;28;20061;-66
2023/12/16 05:54:07;;;;;;;7.90;2.20;;;;;;;-0.54;100.00;102746.09;5029556;28;20033;-66
2023/12/16 05:56:33;;;;;;;9.45;2.05;;;;;;;-0.59;100.00;102765.78;5032074;28;20033;-66
2023/12/16 05:58:58;;;;;;;6.85;1.02;;;;;;;-0.61;100.00;102764.94;5035200;28;20116;-67
2023/12/16 06:01:23;;;;;;;3.13;1.85;;;;;;;-0.58;100.00;102759.78;5035684;28;20021;-66
2023/12/16 06:03:49;;;;;;;6.82;1.10;;;;;;;-0.53;100.00;102754.63;5031277;28;20096;-66
2023/12/16 06:06:15;;;;;;;2.88;0.85;;;;;;;-0.60;100.00;102746.16;5031577;28;20128;-66
2023/12/16 06:08:41;;;;;;;8.40;1.42;;;;;;;-0.63;100.00;102756.44;5028293;28;20384;-66
2023/12/16 06:11:13;;;;;;;4.50;0.88;;;;;;;-0.66;100.00;102771.81;5027952;28;20036;-66
2023/12/16 06:13:41;;;;;;;2.58;0.85;;;;;;;-0.59;100.00;102776.00;5030892;28;20099;-66
2023/12/16 06:16:07;;;;;;;4.38;0.93;;;;;;;-0.44;100.00;102772.41;5034657;28;20029;-67
2023/12/16 06:18:33;;;;;;;4.43;0.80;;;;;;;-0.49;100.00;102784.44;5016302;28;20033;-66
2023/12/16 06:20:59;;;;;;;3.05;0.40;;;;;;;-0.52;100.00;102782.78;5035328;28;20044;-66
2023/12/16 06:23:26;;;;;;;4.28;0.63;;;;;;;-0.49;100.00;102787.00;5032226;28;20124;-66
2023/12/16 06:25:51;;;;;;;4.43;1.58;;;;;;;-0.55;100.00;102785.34;5035241;28;20037;-66
2023/12/16 06:28:16;;;;;;;3.42;1.10;;;;;;;-0.57;100.00;102784.53;5037153;28;20060;-67
2023/12/16 06:30:42;;;;;;;6.75;1.85;;;;;;;-0.55;100.00;102782.81;5034317;28;20111;-66
2023/12/16 06:33:08;;;;;;;3.70;1.10;;;;;;;-0.58;100.00;102775.16;5029575;28;20053;-67
2023/12/16 06:35:34;;;;;;;5.78;2.13;;;;;;;-0.44;100.00;102783.50;5027569;28;20048;-67
2023/12/16 06:37:59;;;;;;;7.03;1.60;;;;;;;-0.32;100.00;102795.31;5029151;28;20071;-67
2023/12/16 06:40:27;;;;;;;4.70;1.63;;;;;;;-0.31;100.00;102788.47;5025871;28;20052;-66
2023/12/16 06:42:53;;;;;;;6.30;1.77;;;;;;;-0.36;100.00;102794.50;5027996;28;20029;-66
2023/12/16 06:45:18;;;;;;;4.63;1.33;;;;;;;-0.39;100.00;102803.94;5022326;28;20117;-67
2023/12/16 06:47:43;;;;;;;5.47;1.77;;;;;;;-0.43;100.00;102805.69;5028544;28;20484;-67
2023/12/16 06:50:09;;;;;;;8.25;2.35;;;;;;;-0.46;100.00;102803.16;5034672;28;20041;-67
2023/12/16 06:52:34;;;;;;;13.55;2.08;;;;;;;-0.50;100.00;102816.03;5015083;28;20156;-67
2023/12/16 06:55:00;;;;;;;5.78;1.70;;;;;;;-0.53;100.00;102822.03;5031216;28;20076;-67
2023/12/16 06:57:25;;;;;;;7.93;1.92;;;;;;;-0.56;100.00;102828.91;5021861;28;20038;-68
2023/12/16 06:59:51;;;;;;;4.75;1.92;;;;;;;-0.45;100.00;102827.91;5020447;28;20037;-68
2023/12/16 07:02:16;;;;;;;5.82;2.15;;;;;;;-0.39;100.00;102838.09;5027318;28;20081;-68
2023/12/16 07:04:42;;;;;;;5.43;2.25;;;;;;;-0.44;100.00;102837.28;5026430;28;20095;-66
2023/12/16 07:07:07;;;;;;;9.32;2.17;;;;;;;-0.49;100.00;102839.06;5026689;28;20034;-68
2023/12/16 07:09:33;;;;;;;7.45;2.17;;;;;;;-0.51;100.00;102845.06;5026847;28;20037;-67
2023/12/16 07:11:58;;;;;;;6.72;1.60;;;;;;;-0.55;100.00;102844.25;5033395;28;20116;-67
2023/12/16 07:14:27;;;;;;;8.75;2.20;;;;;;;-0.50;100.00;102852.75;5014793;28;20057;-68
2023/12/16 07:16:53;;;;;;;9.73;2.95;;;;;;;-0.50;100.00;102857.03;5025845;28;20037;-67
2023/12/16 07:19:18;;;;;;;6.22;2.08;;;;;;;-0.46;100.00;102845.84;5012207;28;20510;-67
2023/12/16 07:21:44;;;;;;;8.25;3.20;;;;;;;-0.44;100.00;102869.72;5028221;28;20041;-67
2023/12/16 07:24:09;;;;;;;8.73;3.30;;;;;;;-0.25;100.00;102865.28;5020906;28;20080;-67
2023/12/16 07:26:35;;;;;;;9.75;2.97;;;;;;;-0.24;100.00;102847.31;5019036;28;20037;-67
2023/12/16 07:29:02;;;;;;;7.75;2.70;;;;;;;-0.22;100.00;102871.22;5022599;28;20025;-67
2023/12/16 07:31:29;;;;;;;5.50;2.05;;;;;;;-0.10;100.00;102850.56;5027805;28;20029;-67
2023/12/16 07:33:55;;;;;;;7.78;1.95;;;;;;;-0.05;100.00;102869.31;5021566;28;20037;-65
2023/12/16 07:36:21;;;;;;;7.75;2.78;;;;;;;0.16;100.00;102857.94;5019078;28;20033;-69
2023/12/16 07:38:47;;;;;;;4.82;1.95;;;;;;;0.17;100.00;102869.88;5029566;28;20033;-69
2023/12/16 07:41:12;;;;;;;7.57;2.30;;;;;;;0.16;100.00;102875.03;5028667;28;20036;-68
2023/12/16 07:43:39;;;;;;;5.78;2.35;;;;;;;0.21;100.00;102875.81;5009422;28;20030;-68
2023/12/16 07:46:05;;;;;;;71.05;6.28;;;;;;;0.26;100.00;102881.75;5020011;28;20060;-68
2023/12/16 07:48:30;;;;;;;6.05;2.55;;;;;;;0.31;100.00;102888.50;5033149;28;20052;-68
2023/12/16 07:50:56;;;;;;;5.28;1.60;;;;;;;0.39;100.00;102897.81;5027135;28;20033;-68
2023/12/16 07:53:22;;;;;;;4.47;1.92;;;;;;;0.44;100.00;102893.47;5028302;28;20029;-67
2023/12/16 07:55:48;;;;;;;5.05;1.77;;;;;;;0.45;100.00;102916.53;5027903;28;20037;-67
2023/12/16 07:58:14;;;;;;;4.57;2.05;;;;;;;0.66;100.00;102885.44;5026087;28;20037;-68
2023/12/16 08:00:40;;;;;;;4.45;1.73;;;;;;;0.74;100.00;102903.28;5028295;28;20511;-68
2023/12/16 08:03:06;;;;;;;4.32;2.08;;;;;;;0.83;100.00;102885.19;5025299;28;20029;-67
2023/12/16 08:05:31;;;;;;;4.75;1.90;;;;;;;0.94;100.00;102901.28;5025601;28;20103;-67
2023/12/16 08:07:57;;;;;;;8.65;2.45;;;;;;;1.07;100.00;102898.50;5024386;28;20543;-67
2023/12/16 08:10:22;;;;;;;8.07;2.35;;;;;;;1.29;100.00;102905.00;5029742;28;20034;-68
2023/12/16 08:12:47;;;;;;;8.80;2.88;;;;;;;1.48;100.00;102890.94;5028530;28;20021;-67
2023/12/16 08:15:13;;;;;;;8.90;3.38;;;;;;;1.47;100.00;102902.09;5029313;28;20033;-67
2023/12/16 08:17:38;;;;;;;10.50;2.80;;;;;;;1.53;100.00;102901.97;5028685;28;20056;-70
2023/12/16 08:20:05;;;;;;;11.13;4.10;;;;;;;1.51;100.00;102901.16;5028869;28;20037;-67
2023/12/16 08:22:31;;;;;;;12.73;4.10;;;;;;;1.55;100.00;102902.81;5029033;28;20064;-67
2023/12/16 08:24:57;;;;;;;9.93;3.50;;;;;;;1.59;100.00;102908.72;5029121;28;20108;-67
2023/12/16 08:27:23;;;;;;;7.45;3.60;;;;;;;1.66;100.00;102908.59;5027927;28;20033;-67
2023/12/16 08:29:49;;;;;;;8.75;3.40;;;;;;;1.83;100.00;102925.44;5029150;28;20132;-67
2023/12/16 08:32:15;;;;;;;6.95;3.28;;;;;;;1.96;100.00;102898.59;5029845;28;20037;-67
2023/12/16 08:34:41;;;;;;;9.27;3.88;;;;;;;2.06;100.00;102922.41;5017293;28;20046;-67
2023/12/16 08:37:06;;;;;;;6.93;3.30;;;;;;;2.19;100.00;102899.00;5026451;28;20033;-68
2023/12/16 08:39:32;;;;;;;7.18;2.58;;;;;;;2.27;100.00;102909.97;5026107;28;20084;-67
2023/12/16 08:41:57;;;;;;;5.43;2.20;;;;;;;2.39;100.00;102908.84;5026363;28;20362;-68
2023/12/16 08:44:23;;;;;;;6.72;3.10;;;;;;;2.50;100.00;102903.47;5027032;28;20503;-68
2023/12/16 08:46:48;;;;;;;5.35;2.17;;;;;;;2.50;100.00;102913.78;5026666;28;20266;-68
2023/12/16 08:49:14;;;;;;;1.63;1.00;;;;;;;2.77;100.00;102913.19;5022889;28;20029;-68
2023/12/16 08:51:39;;;;;;;3.47;1.67;;;;;;;2.94;100.00;102910.19;5026073;28;20049;-67
2023/12/16 08:54:05;;;;;;;2.83;1.02;;;;;;;2.96;100.00;102906.69;5031167;28;20116;-68
2023/12/16 08:56:30;;;;;;;1.58;0.95;;;;;;;3.04;100.00;102919.38;5026779;28;20044;-68
2023/12/16 08:58:55;;;;;;;5.35;1.58;;;;;;;3.07;100.00;102927.03;5029797;28;20079;-68
2023/12/16 09:01:21;;;;;;;2.53;1.10;;;;;;;3.13;100.00;102931.22;5029063;28;20034;-67
2023/12/16 09:03:46;;;;;;;2.00;0.50;;;;;;;3.19;100.00;102933.63;5029642;28;20112;-68
2023/12/16 09:06:12;;;;;;;2.05;0.73;;;;;;;3.35;100.00;102950.41;5026715;28;20025;-67
2023/12/16 09:08:37;;;;;;;1.92;0.40;;;;;;;3.46;100.00;102938.09;5031540;28;20403;-68
2023/12/16 09:11:04;;;;;;;4.85;0.90;;;;;;;3.44;100.00;102955.31;5030392;28;20072;-68
2023/12/16 09:13:29;;;;;;;2.47;0.88;;;;;;;3.59;100.00;102952.38;5030881;28;20091;-63
2023/12/16 09:15:54;;;;;;;3.97;0.88;;;;;;;3.76;100.00;102953.69;5031875;28;20433;-68
2023/12/16 09:18:20;;;;;;;2.03;0.40;;;;;;;4.24;97.07;102951.50;5031017;28;20034;-67
2023/12/16 09:20:45;;;;;;;0.82;0.40;;;;;;;4.31;97.38;102946.09;5031893;28;20034;-67
2023/12/16 09:23:11;;;;;;;1.30;0.55;;;;;;;4.51;94.09;102945.50;5031586;28;20033;-67
2023/12/16 09:25:36;;;;;;;1.30;0.40;;;;;;;4.66;93.99;102939.06;5028917;28;20084;-68
2023/12/16 09:28:02;;;;;;;1.35;0.40;;;;;;;4.77;93.36;102939.53;5023563;28;20042;-69
2023/12/16 09:30:27;;;;;;;0.90;0.30;;;;;;;4.65;93.96;102930.47;5007037;28;20037;-68
2023/12/16 09:32:53;;;;;;;3.40;0.80;;;;;;;4.49;95.28;102936.13;5031265;28;20496;-68
2023/12/16 09:35:19;;;;;;;3.97;0.98;;;;;;;4.41;96.04;102935.50;5029044;28;20515;-68
2023/12/16 09:37:44;;;;;;;2.33;0.43;;;;;;;4.32;96.30;102929.72;5031587;28;20037;-68
2023/12/16 09:40:11;;;;;;;1.55;0.40;;;;;;;4.40;97.13;102926.91;5030923;28;20088;-68
2023/12/16 09:42:36;;;;;;;2.50;0.70;;;;;;;4.37;96.54;102928.72;5031370;28;20072;-68
2023/12/16 09:45:03;;;;;;;1.20;0.40;;;;;;;4.40;96.77;102921.75;5031158;28;20500;-68
2023/12/16 09:47:28;;;;;;;1.17;0.40;;;;;;;4.58;95.20;102930.69;5030576;28;20397;-67
2023/12/16 09:50:00;;;;;;;2.42;0.47;;;;;;;4.57;95.58;102929.00;5031288;28;20045;-69
2023/12/16 09:52:26;;;;;;;2.05;0.40;;;;;;;4.65;95.09;102927.03;5027500;28;20083;-68
2023/12/16 09:54:52;;;;;;;0.88;0.20;;;;;;;4.68;94.18;102928.69;5029934;28;20030;-68
2023/12/16 09:57:19;;;;;;;1.63;0.30;;;;;;;4.64;95.05;102927.94;5030150;28;20216;-67
2023/12/16 09:59:46;;;;;;;1.25;0.60;;;;;;;4.62;94.92;102927.97;5030148;28;20029;-68
2023/12/16 10:02:27;;;;;;;1.25;0.30;;;;;;;4.61;95.72;102930.59;5029468;28;20493;-68
2023/12/16 10:04:56;;;;;;;1.45;0.40;;;;;;;4.63;94.22;102929.66;5029939;28;20500;-68
2023/12/16 10:07:21;;;;;;;2.15;0.65;;;;;;;4.65;94.70;102932.19;5030766;28;20479;-68
2023/12/16 10:09:47;;;;;;;1.35;0.38;;;;;;;4.74;93.51;102924.16;5031184;28;20124;-68
2023/12/16 10:12:13;;;;;;;0.75;0.30;;;;;;;4.78;93.74;102928.31;5025956;28;20041;-68
2023/12/16 10:14:46;;;;;;;1.88;0.30;;;;;;;4.79;94.66;102918.84;5029981;28;20061;-68
2023/12/16 10:17:12;;;;;;;1.30;0.30;;;;;;;4.88;93.98;102922.00;5027917;28;20034;-68
2023/12/16 10:19:38;;;;;;;2.15;0.50;;;;;;;5.03;93.06;102923.25;5030851;28;20040;-68
2023/12/16 10:22:03;;;;;;;1.75;0.45;;;;;;;5.04;92.91;102916.34;5031363;28;20091;-67
2023/12/16 10:24:28;;;;;;;0.93;0.30;;;;;;;5.03;93.15;102923.25;5028938;28;20075;-68
2023/12/16 10:26:54;;;;;;;2.63;0.30;;;;;;;5.12;92.82;102919.53;5026274;28;20038;-68
2023/12/16 10:29:20;;;;;;;5.70;0.47;;;;;;;5.10;92.23;102929.91;5027007;28;20045;-68
2023/12/16 10:31:46;;;;;;;2.33;0.30;;;;;;;5.16;91.84;102928.88;5030631;28;20029;-68
2023/12/16 10:34:11;;;;;;;2.60;0.30;;;;;;;5.43;90.47;102933.13;5029137;28;20550;-68
2023/12/16 10:36:37;;;;;;;2.55;0.35;;;;;;;5.43;89.79;102933.13;5030249;28;20045;-68
2023/12/16 10:39:02;;;;;;;1.30;0.20;;;;;;;5.43;89.81;102933.13;5030276;28;20040;-68
2023/12/16 10:41:28;;;;;;;3.47;0.20;;;;;;;5.41;90.39;102929.72;5027877;28;20025;-68
2023/12/16 10:43:53;;;;;;;1.17;0.20;;;;;;;5.44;90.42;102933.97;5027884;28;20036;-68
2023/12/16 10:46:20;;;;;;;1.13;0.20;;;;;;;5.45;90.67;102941.66;5030242;28;20037;-68
2023/12/16 10:48:48;;;;;;;0.60;0.13;;;;;;;5.49;90.51;102940.66;5030376;28;20040;-68
2023/12/16 10:51:15;;;;;;;1.40;0.30;;;;;;;5.48;90.73;102935.53;5033120;28;20029;-68
2023/12/16 10:53:55;;;;;;;3.92;0.25;;;;;;;5.47;90.88;102933.84;5029449;28;20026;-68
2023/12/16 10:56:35;;;;;;;0.65;0.30;;;;;;;5.49;90.35;102927.75;5029817;28;20038;-68
2023/12/16 10:59:04;;;;;;;3.13;0.20;;;;;;;5.58;87.42;102932.59;5026394;28;20431;-68
2023/12/16 11:01:34;;;;;;;0.52;0.43;;;;;;;5.70;88.51;102930.47;5031763;28;20039;-68
2023/12/16 11:04:23;;;;;;;3.05;0.30;;;;;;;5.74;87.52;102927.72;5028562;28;20037;-68
2023/12/16 11:07:14;;;;;;;0.63;0.20;;;;;;;5.80;86.12;102922.34;5014707;28;20037;-68
2023/12/16 11:09:40;;;;;;;1.13;0.20;;;;;;;5.86;88.62;102916.94;5021558;28;20064;-68
2023/12/16 11:12:07;;;;;;;0.70;0.10;;;;;;;5.91;88.36;102920.25;5013297;28;20144;-68
2023/12/16 11:14:35;;;;;;;2.72;0.30;;;;;;;5.97;87.79;102919.19;5011124;28;20052;-68
2023/12/16 11:17:11;;;;;;;1.35;0.20;;;;;;;5.90;88.25;102918.56;5026891;28;20088;-68
2023/12/16 11:19:42;;;;;;;1.27;0.20;;;;;;;5.87;87.03;102913.47;5032580;28;20020;-68